Time;durP1;ratioP1;P1;durP2;ratioP2;P2;SDS_P1;SDS_P2;PMS_P1;PMS_P2;Temp;Humidity;BMP_temperature;BMP_pressure;BME280_temperature;BME280_humidity;BME280_pressure;Samples;Min_cycle;Max_cycle;Signal;HPM_P1;HPM_P2
2022/06/07 00:00:39;;;;;;;;;;;;;;;14.48;71.75;100081.38;5113581;28;19923;-51
2022/06/07 00:03:06;;;;;;;;;;;;;;;14.41;71.42;100075.53;5113481;28;20297;-51
2022/06/07 00:05:34;;;;;;;;;;;;;;;14.38;71.39;100070.63;5113485;28;19931;-53
2022/06/07 00:08:02;;;;;;;;;;;;;;;14.36;71.27;100072.94;5110783;28;19930;-53
2022/06/07 00:10:29;;;;;;;;;;;;;;;14.27;72.12;100070.28;5113502;28;19930;-53
2022/06/07 00:12:56;;;;;;;;;;;;;;;14.26;72.19;100065.00;5113491;28;19931;-53
2022/06/07 00:15:23;;;;;;;;;;;;;;;14.20;72.39;100073.66;5113107;28;19928;-55
2022/06/07 00:17:50;;;;;;;;;;;;;;;14.16;72.17;100061.50;5113394;28;19931;-56
2022/06/07 00:20:18;;;;;;;;;;;;;;;14.16;72.09;100066.31;5109408;28;19934;-53
2022/06/07 00:22:46;;;;;;;;;;;;;;;14.11;72.06;100058.94;5113447;28;19924;-54
2022/06/07 00:25:14;;;;;;;;;;;;;;;14.07;72.17;100063.63;5105268;28;20403;-53
2022/06/07 00:27:41;;;;;;;;;;;;;;;14.02;72.18;100055.41;5093179;28;20372;-56
2022/06/07 00:30:09;;;;;;;;;;;;;;;13.98;72.45;100060.09;5092121;28;19925;-55
2022/06/07 00:32:37;;;;;;;;;;;;;;;13.99;72.21;100067.34;5092793;28;19931;-53
2022/06/07 00:35:04;;;;;;;;;;;;;;;13.94;72.40;100059.13;5095683;28;19924;-56
2022/06/07 00:37:34;;;;;;;;;;;;;;;13.91;72.56;100059.84;5111344;28;19924;-53
2022/06/07 00:40:03;;;;;;;;;;;;;;;13.86;72.67;100057.25;5113017;28;19924;-56
2022/06/07 00:42:30;;;;;;;;;;;;;;;13.82;72.63;100051.56;5112972;28;19931;-54
2022/06/07 00:44:57;;;;;;;;;;;;;;;13.75;72.77;100057.72;5113104;28;19924;-54
2022/06/07 00:47:28;;;;;;;;;;;;;;;13.73;72.58;100060.06;5113020;28;19924;-54
2022/06/07 00:49:56;;;;;;;;;;;;;;;13.72;72.80;100052.81;5110768;28;20261;-53
2022/06/07 00:52:25;;;;;;;;;;;;;;;13.71;72.06;100045.59;5112965;28;19931;-53
2022/06/07 00:54:52;;;;;;;;;;;;;;;13.70;72.29;100048.72;5112162;28;19938;-53
2022/06/07 00:57:21;;;;;;;;;;;;;;;13.60;72.94;100041.56;5112414;28;19931;-54
2022/06/07 00:59:48;;;;;;;;;;;;;;;13.56;73.00;100038.63;5112164;28;19924;-55
2022/06/07 01:02:15;;;;;;;;;;;;;;;13.52;72.95;100034.94;5105177;28;19924;-55
2022/06/07 01:04:42;;;;;;;;;;;;;;;13.48;73.17;100041.53;5110456;28;20380;-53
2022/06/07 01:12:39;;;;;;;;;;;;;;;13.36;73.04;100034.75;5119848;28;19928;-55
2022/06/07 01:15:08;;;;;;;;;;;;;;;13.33;72.98;100029.00;5112824;28;19931;-53
2022/06/07 01:17:35;;;;;;;;;;;;;;;13.28;73.52;100032.81;5112449;28;19924;-53
2022/06/07 01:20:02;;;;;;;;;;;;;;;13.25;73.22;100027.06;5107030;28;19932;-54
2022/06/07 01:22:30;;;;;;;;;;;;;;;13.21;73.13;100021.38;5112315;28;19935;-53
2022/06/07 01:24:57;;;;;;;;;;;;;;;13.18;73.01;100030.44;5107811;28;19931;-56
2022/06/07 01:27:25;;;;;;;;;;;;;;;13.15;73.08;100025.53;5095885;28;19924;-56
2022/06/07 01:29:52;;;;;;;;;;;;;;;13.13;73.46;100025.06;5095613;28;19924;-53
2022/06/07 01:32:19;;;;;;;;;;;;;;;13.09;73.61;100026.91;5095670;28;19935;-55
2022/06/07 01:34:47;;;;;;;;;;;;;;;13.09;73.50;100024.13;5096826;28;19932;-55
2022/06/07 01:37:15;;;;;;;;;;;;;;;13.07;73.79;100029.22;5116438;28;19924;-56
2022/06/07 01:42:28;;;;;;;;;;;;;;;13.01;74.79;100034.19;5123003;28;20284;-55
2022/06/07 01:44:56;;;;;;;;;;;;;;;12.98;74.43;100030.13;5115844;28;19924;-53
2022/06/07 01:47:24;;;;;;;;;;;;;;;12.93;75.05;100033.09;5116015;28;19930;-54
2022/06/07 01:49:51;;;;;;;;;;;;;;;12.92;74.68;100025.06;5115799;28;19931;-56
2022/06/07 01:52:20;;;;;;;;;;;;;;;12.89;74.23;100025.75;5115713;28;19923;-55
2022/06/07 01:54:51;;;;;;;;;;;;;;;12.86;74.40;100021.66;5114784;28;19924;-54
2022/06/07 01:57:18;;;;;;;;;;;;;;;12.84;74.17;100026.78;5115610;28;19931;-53
2022/06/07 01:59:45;;;;;;;;;;;;;;;12.83;73.63;100015.94;5115925;28;19930;-54
2022/06/07 02:02:13;;;;;;;;;;;;;;;12.78;74.03;100014.97;5115633;28;19924;-53
2022/06/07 02:04:41;;;;;;;;;;;;;;;12.76;74.21;100010.88;5115375;28;19924;-53
2022/06/07 02:07:10;;;;;;;;;;;;;;;12.72;73.60;100009.94;5115120;28;19939;-53
2022/06/07 02:09:40;;;;;;;;;;;;;;;12.70;73.43;100013.06;5113463;28;19924;-56
2022/06/07 02:12:08;;;;;;;;;;;;;;;12.65;73.79;100016.06;5115394;28;19923;-53
2022/06/07 02:14:35;;;;;;;;;;;;;;;12.66;73.14;100017.72;5115312;28;19923;-54
2022/06/07 02:17:03;;;;;;;;;;;;;;;12.63;73.35;100001.63;5115452;28;19931;-53
2022/06/07 02:19:30;;;;;;;;;;;;;;;12.58;73.40;100008.22;5108390;28;19935;-53
2022/06/07 02:21:57;;;;;;;;;;;;;;;12.57;73.25;100009.38;5115882;28;19924;-52
2022/06/07 02:24:26;;;;;;;;;;;;;;;12.56;73.21;100007.75;5114952;28;20391;-54
2022/06/07 02:26:57;;;;;;;;;;;;;;;12.55;73.46;100010.88;5095499;28;19924;-56
2022/06/07 02:29:27;;;;;;;;;;;;;;;12.54;73.57;100004.47;5100795;28;19931;-53
2022/06/07 02:31:56;;;;;;;;;;;;;;;12.54;73.71;99993.31;5115488;28;20286;-55
2022/06/07 02:34:24;;;;;;;;;;;;;;;12.52;74.35;100001.19;5115066;28;19924;-56
2022/06/07 02:36:54;;;;;;;;;;;;;;;12.51;74.91;99993.97;5116011;28;19931;-56
2022/06/07 02:39:21;;;;;;;;;;;;;;;12.51;75.11;99999.53;5115181;28;20372;-53
2022/06/07 02:41:49;;;;;;;;;;;;;;;12.50;74.91;100002.69;5111177;28;20394;-53
2022/06/07 02:44:16;;;;;;;;;;;;;;;12.47;75.10;100004.19;5100803;28;19931;-53
2022/06/07 02:46:45;;;;;;;;;;;;;;;12.48;75.08;100005.03;5115778;28;20387;-53
2022/06/07 02:49:12;;;;;;;;;;;;;;;12.52;74.93;100001.19;5114948;28;19923;-54
2022/06/07 02:51:39;;;;;;;;;;;;;;;12.52;75.10;100005.97;5115014;28;20279;-54
2022/06/07 02:54:06;;;;;;;;;;;;;;;12.54;75.23;99992.50;5115159;28;19931;-53
2022/06/07 02:56:33;;;;;;;;;;;;;;;12.53;74.82;99997.22;5115180;28;19923;-53
2022/06/07 02:59:00;;;;;;;;;;;;;;;12.54;74.65;100003.66;5113121;28;19928;-55
2022/06/07 03:01:28;;;;;;;;;;;;;;;12.52;74.97;100008.78;5105964;28;19930;-53
2022/06/07 03:03:58;;;;;;;;;;;;;;;12.53;74.81;100007.59;5115017;28;19924;-56
2022/06/07 03:06:25;;;;;;;;;;;;;;;12.56;74.40;100006.94;5114518;28;19924;-54
2022/06/07 03:08:52;;;;;;;;;;;;;;;12.54;74.62;100010.06;5114811;28;20332;-53
2022/06/07 03:11:19;;;;;;;;;;;;;;;12.53;74.70;100008.41;5114611;28;20395;-53
2022/06/07 03:13:47;;;;;;;;;;;;;;;12.55;74.26;100005.28;5109926;28;19930;-55
2022/06/07 03:16:15;;;;;;;;;;;;;;;12.54;74.41;100010.06;5111857;28;20364;-56
2022/06/07 03:18:42;;;;;;;;;;;;;;;12.50;74.41;100005.50;5114465;28;19931;-53
2022/06/07 03:21:10;;;;;;;;;;;;;;;12.46;74.11;100010.13;5114438;28;19924;-53
2022/06/07 03:23:37;;;;;;;;;;;;;;;12.41;74.44;100011.16;5114585;28;19924;-53
2022/06/07 03:26:05;;;;;;;;;;;;;;;12.46;74.42;100007.34;5099837;28;19931;-53
2022/06/07 03:28:32;;;;;;;;;;;;;;;12.47;74.23;100020.94;5091843;28;19924;-53
2022/06/07 03:31:07;;;;;;;;;;;;;;;12.49;74.51;100013.03;5073559;28;19924;-53
2022/06/07 03:33:34;;;;;;;;;;;;;;;12.55;74.17;100016.47;5073136;28;19924;-53
2022/06/07 03:36:09;;;;;;;;;;;;;;;12.61;73.96;100008.72;5073715;28;19935;-54
2022/06/07 03:38:37;;;;;;;;;;;;;;;12.58;74.84;100013.00;5073837;28;20313;-53
2022/06/07 03:41:04;;;;;;;;;;;;;;;12.63;74.47;100006.41;5073669;28;20345;-54
2022/06/07 03:43:31;;;;;;;;;;;;;;;12.67;74.45;100010.16;5077781;28;19929;-56
2022/06/07 03:46:06;;;;;;;;;;;;;;;12.74;74.78;100008.41;5114264;28;19923;-53
2022/06/07 03:48:33;;;;;;;;;;;;;;;12.84;74.36;100007.22;5113068;28;19994;-56
2022/06/07 03:51:00;;;;;;;;;;;;;;;12.92;74.49;100009.13;5114037;28;20396;-53
2022/06/07 03:53:30;;;;;;;;;;;;;;;13.00;74.09;100002.63;5097307;28;19987;-55
2022/06/07 03:55:58;;;;;;;;;;;;;;;13.09;73.95;100002.56;5093477;28;20372;-56
2022/06/07 03:58:25;;;;;;;;;;;;;;;13.20;73.40;100014.13;5095986;28;20391;-56
2022/06/07 04:00:53;;;;;;;;;;;;;;;13.24;73.58;100008.69;5113872;28;19924;-55
2022/06/07 04:03:20;;;;;;;;;;;;;;;13.29;72.90;100011.28;5113698;28;19924;-53
2022/06/07 04:05:48;;;;;;;;;;;;;;;13.36;72.48;100017.97;5113786;28;19923;-54
2022/06/07 04:08:15;;;;;;;;;;;;;;;13.48;71.90;100019.16;5111535;28;19923;-53
2022/06/07 04:10:46;;;;;;;;;;;;;;;13.55;71.81;100017.44;5113664;28;19931;-53
2022/06/07 04:13:16;;;;;;;;;;;;;;;13.61;71.50;100012.44;5109385;28;19929;-53
2022/06/07 04:15:43;;;;;;;;;;;;;;;13.64;71.03;100028.53;5088769;28;20276;-54
2022/06/07 04:18:10;;;;;;;;;;;;;;;13.72;70.73;100021.22;5105730;28;19923;-54
2022/06/07 04:20:38;;;;;;;;;;;;;;;13.88;70.06;100021.34;5113087;28;19924;-54
2022/06/07 04:23:05;;;;;;;;;;;;;;;13.93;69.62;100019.13;5096893;28;19923;-53
2022/06/07 04:25:34;;;;;;;;;;;;;;;14.00;69.39;100010.16;5092726;28;19931;-55
2022/06/07 04:28:00;;;;;;;;;;;;;;;14.06;69.07;100003.16;5099765;28;19950;-53
2022/06/07 04:30:29;;;;;;;;;;;;;;;14.17;68.71;100007.16;5087756;28;19924;-54
2022/06/07 04:32:56;;;;;;;;;;;;;;;14.30;68.19;100009.91;5072543;28;20376;-53
2022/06/07 04:35:23;;;;;;;;;;;;;;;14.32;67.88;100007.56;5091345;28;20368;-53
2022/06/07 04:37:50;;;;;;;;;;;;;;;14.25;67.68;100007.34;5099452;28;19924;-54
2022/06/07 04:40:17;;;;;;;;;;;;;;;14.31;67.83;100008.75;5088909;28;19931;-53
2022/06/07 04:42:45;;;;;;;;;;;;;;;14.46;67.31;100013.63;5085594;28;20384;-53
2022/06/07 04:45:14;;;;;;;;;;;;;;;14.53;66.90;100013.88;5072609;28;19924;-53
2022/06/07 04:47:42;;;;;;;;;;;;;;;14.68;66.87;100017.97;5092321;28;19924;-54
2022/06/07 04:50:13;;;;;;;;;;;;;;;14.81;65.72;100008.34;5092246;28;19924;-54
2022/06/07 04:52:40;;;;;;;;;;;;;;;14.89;65.32;100006.59;5090744;28;19947;-55
2022/06/07 04:55:08;;;;;;;;;;;;;;;14.94;65.14;100011.13;5086380;28;20349;-54
2022/06/07 04:57:35;;;;;;;;;;;;;;;14.98;64.72;100012.88;5083640;28;19924;-54
2022/06/07 05:00:02;;;;;;;;;;;;;;;15.04;64.69;100005.03;5088571;28;19940;-52
2022/06/07 05:02:29;;;;;;;;;;;;;;;15.11;64.71;100005.22;5091007;28;20304;-54
2022/06/07 05:04:58;;;;;;;;;;;;;;;15.25;64.11;100007.63;5095495;28;19943;-54
2022/06/07 05:07:25;;;;;;;;;;;;;;;15.26;63.65;100011.25;5079899;28;19939;-53
2022/06/07 05:09:52;;;;;;;;;;;;;;;15.37;62.52;100001.97;5114610;28;19934;-54
2022/06/07 05:12:19;;;;;;;;;;;;;;;15.40;63.05;100006.03;5095571;28;20372;-53
2022/06/07 05:14:47;;;;;;;;;;;;;;;15.56;62.95;100014.47;5094214;28;19932;-52
2022/06/07 05:17:14;;;;;;;;;;;;;;;15.60;62.49;100006.97;5082156;28;19935;-52
2022/06/07 05:19:41;;;;;;;;;;;;;;;15.66;62.00;100008.34;5095815;28;20304;-52
2022/06/07 05:22:10;;;;;;;;;;;;;;;15.69;61.36;100015.25;5095337;28;19924;-52
2022/06/07 05:24:37;;;;;;;;;;;;;;;15.75;61.36;100011.84;5111566;28;19939;-54
2022/06/07 05:27:05;;;;;;;;;;;;;;;15.82;61.02;100009.19;5096489;28;19924;-54
2022/06/07 05:29:35;;;;;;;;;;;;;;;15.89;60.20;100013.38;5094107;28;19928;-53
2022/06/07 05:32:02;;;;;;;;;;;;;;;16.00;60.36;100011.66;5094037;28;19935;-53
2022/06/07 05:34:29;;;;;;;;;;;;;;;16.10;59.64;100010.28;5094144;28;19925;-52
2022/06/07 05:36:56;;;;;;;;;;;;;;;16.16;59.11;100012.47;5077588;28;19925;-52
2022/06/07 05:39:25;;;;;;;;;;;;;;;16.30;59.33;100014.81;5074993;28;19924;-55
2022/06/07 05:41:53;;;;;;;;;;;;;;;16.34;58.21;100017.72;5087749;28;19947;-54
2022/06/07 05:44:23;;;;;;;;;;;;;;;16.60;57.01;100026.34;5093880;28;19931;-53
2022/06/07 05:46:52;;;;;;;;;;;;;;;16.82;55.49;100015.66;5091633;28;19947;-53
2022/06/07 05:49:19;;;;;;;;;;;;;;;16.99;54.79;100020.03;5081987;28;19925;-54
2022/06/07 05:51:46;;;;;;;;;;;;;;;17.30;54.56;100009.78;5077296;28;19935;-52
2022/06/07 05:54:14;;;;;;;;;;;;;;;17.64;53.13;100010.88;5081847;28;20392;-52
2022/06/07 05:56:43;;;;;;;;;;;;;;;17.63;51.98;100012.84;5094294;28;19924;-55
2022/06/07 05:59:10;;;;;;;;;;;;;;;17.87;51.67;100012.91;5095333;28;19931;-52
2022/06/07 06:01:37;;;;;;;;;;;;;;;18.17;50.36;100019.47;5091735;28;19924;-52
2022/06/07 06:04:07;;;;;;;;;;;;;;;18.19;50.13;100017.09;5092017;28;19924;-52
2022/06/07 06:06:34;;;;;;;;;;;;;;;18.38;49.24;100015.38;5090401;28;20403;-54
2022/06/07 06:11:47;;;;;;;;;;;;;;;18.48;49.51;100037.31;5091968;28;19925;-52
2022/06/07 06:14:14;;;;;;;;;;;;;;;18.38;49.51;100029.47;5091835;28;19924;-52
2022/06/07 06:16:41;;;;;;;;;;;;;;;18.55;49.13;100025.31;5089105;28;19935;-52
2022/06/07 06:19:08;;;;;;;;;;;;;;;18.68;49.36;100026.72;5086821;28;20369;-52
2022/06/07 06:21:39;;;;;;;;;;;;;;;18.43;49.27;100026.31;5085257;28;19924;-52
2022/06/07 06:24:08;;;;;;;;;;;;;;;18.63;48.66;100027.84;5080545;28;20305;-55
2022/06/07 06:26:38;;;;;;;;;;;;;;;18.80;48.76;100029.34;5097274;28;19923;-52
2022/06/07 06:29:08;;;;;;;;;;;;;;;18.75;48.36;100035.31;5098204;28;20392;-53
2022/06/07 06:31:35;;;;;;;;;;;;;;;19.06;47.38;100031.31;5085920;28;19930;-52
2022/06/07 06:34:02;;;;;;;;;;;;;;;19.16;46.92;100024.19;5081404;28;19935;-52
2022/06/07 06:36:30;;;;;;;;;;;;;;;19.26;47.09;100017.84;5075380;28;19925;-56
2022/06/07 06:38:57;;;;;;;;;;;;;;;18.80;48.10;100020.06;5085703;28;19925;-56
2022/06/07 06:41:33;;;;;;;;;;;;;;;19.12;47.76;100014.03;5090624;28;20364;-55
2022/06/07 06:44:02;;;;;;;;;;;;;;;19.20;46.62;100010.13;5090799;28;20401;-56
2022/06/07 06:46:31;;;;;;;;;;;;;;;19.39;47.27;100024.06;5097336;28;19931;-56
2022/06/07 06:48:58;;;;;;;;;;;;;;;19.34;46.26;100021.59;5081986;28;20312;-55
2022/06/07 06:51:26;;;;;;;;;;;;;;;19.31;45.37;100016.69;5109611;28;20356;-53
2022/06/07 06:53:56;;;;;;;;;;;;;;;19.53;45.71;100017.75;5095350;28;19931;-55
2022/06/07 06:56:23;;;;;;;;;;;;;;;19.20;45.97;100027.84;4998657;28;2109572;-56
2022/06/07 06:58:51;;;;;;;;;;;;;;;19.20;46.40;100030.69;5089692;28;19924;-56
2022/06/07 07:01:19;;;;;;;;;;;;;;;19.14;46.67;100020.91;5101596;28;19929;-56
2022/06/07 07:03:48;;;;;;;;;;;;;;;19.04;46.61;100022.41;5078982;28;20304;-56
2022/06/07 07:06:16;;;;;;;;;;;;;;;18.99;47.05;100022.75;5091940;28;20272;-56
2022/06/07 07:08:46;;;;;;;;;;;;;;;18.97;47.58;100027.16;5096031;28;20253;-54
2022/06/07 07:11:14;;;;;;;;;;;;;;;18.93;47.09;100029.91;5107779;28;19924;-53
2022/06/07 07:13:42;;;;;;;;;;;;;;;18.91;46.67;100018.19;5083862;28;19924;-53
2022/06/07 07:16:10;;;;;;;;;;;;;;;19.23;46.01;100017.81;5106345;28;19923;-54
2022/06/07 07:18:37;;;;;;;;;;;;;;;19.13;45.69;100013.66;5073323;28;20300;-55
2022/06/07 07:21:07;;;;;;;;;;;;;;;19.32;46.12;100012.69;5110458;28;19924;-54
2022/06/07 07:23:35;;;;;;;;;;;;;;;18.96;45.65;100012.25;5071768;28;19931;-55
2022/06/07 07:26:03;;;;;;;;;;;;;;;18.92;46.11;100013.38;5091790;28;20368;-54
2022/06/07 07:28:31;;;;;;;;;;;;;;;19.05;46.07;100006.31;5072390;28;19933;-54
2022/06/07 07:30:59;;;;;;;;;;;;;;;19.24;45.74;100008.94;5105127;28;19924;-55
2022/06/07 07:33:26;;;;;;;;;;;;;;;19.43;45.53;100010.78;5075711;28;19924;-56
2022/06/07 07:35:53;;;;;;;;;;;;;;;19.59;44.42;100007.75;5104179;28;20265;-54
2022/06/07 07:38:23;;;;;;;;;;;;;;;19.89;44.41;100006.06;5073197;28;19925;-56
2022/06/07 07:40:50;;;;;;;;;;;;;;;20.37;43.48;100011.69;5090515;28;19928;-55
2022/06/07 07:43:18;;;;;;;;;;;;;;;20.52;43.53;100018.28;5078524;28;20407;-57
2022/06/07 07:45:45;;;;;;;;;;;;;;;20.68;42.56;100001.81;5094597;28;20388;-56
2022/06/07 07:48:12;;;;;;;;;;;;;;;21.12;41.16;100012.16;5076060;28;19931;-56
2022/06/07 07:50:40;;;;;;;;;;;;;;;21.27;39.73;100008.22;5099692;28;19923;-56
2022/06/07 07:53:07;;;;;;;;;;;;;;;21.08;39.02;100003.69;5103035;28;19931;-54
2022/06/07 07:55:36;;;;;;;;;;;;;;;22.01;38.53;100002.31;5102863;27;19935;-55
2022/06/07 07:58:03;;;;;;;;;;;;;;;23.29;36.27;99997.66;5111866;28;19934;-55
2022/06/07 08:00:31;;;;;;;;;;;;;;;24.20;35.66;99999.53;5111055;28;20272;-56
2022/06/07 08:02:58;;;;;;;;;;;;;;;23.96;34.74;99989.16;5077029;28;19928;-56
2022/06/07 08:05:25;;;;;;;;;;;;;;;23.23;36.16;100002.97;5088479;28;19928;-54
2022/06/07 08:07:52;;;;;;;;;;;;;;;23.99;35.17;99994.81;5096257;28;19928;-57
2022/06/07 08:10:19;;;;;;;;;;;;;;;23.87;34.77;99981.09;5086855;28;20444;-57
2022/06/07 08:12:48;;;;;;;;;;;;;;;24.92;33.46;99998.84;5111272;28;19930;-56
2022/06/07 08:15:15;;;;;;;;;;;;;;;24.50;32.27;100010.25;5091195;28;19931;-56
2022/06/07 08:17:43;;;;;;;;;;;;;;;24.56;32.46;100004.91;5087426;28;19924;-55
2022/06/07 08:20:11;;;;;;;;;;;;;;;25.24;32.22;99998.50;5111809;28;19923;-55
2022/06/07 08:22:38;;;;;;;;;;;;;;;25.24;31.84;100007.06;5083327;28;19924;-53
2022/06/07 08:25:06;;;;;;;;;;;;;;;26.54;29.03;99994.47;5088778;28;19924;-57
2022/06/07 08:27:33;;;;;;;;;;;;;;;26.43;29.10;99999.56;5081919;28;19947;-57
2022/06/07 08:30:01;;;;;;;;;;;;;;;26.40;28.73;100009.81;5070895;28;19940;-57
2022/06/07 08:32:28;;;;;;;;;;;;;;;26.76;28.78;100002.69;5074200;28;19928;-53
2022/06/07 08:37:40;;;;;;;;;;;;;;;27.51;27.55;100007.69;5100855;28;20392;-57
2022/06/07 08:40:10;;;;;;;;;;;;;;;27.80;26.98;100000.50;5083933;28;20407;-56
2022/06/07 08:42:38;;;;;;;;;;;;;;;27.32;27.88;99985.66;5081209;28;19928;-55
2022/06/07 08:45:08;;;;;;;;;;;;;;;27.96;27.00;100005.50;5081618;28;19936;-55
2022/06/07 08:47:37;;;;;;;;;;;;;;;27.97;27.51;99996.47;5072167;28;19935;-55
2022/06/07 08:50:08;;;;;;;;;;;;;;;27.59;27.28;99996.06;5084829;28;19924;-57
2022/06/07 08:52:36;;;;;;;;;;;;;;;28.45;26.57;99979.69;5089589;28;19931;-56
2022/06/07 08:55:12;;;;;;;;;;;;;;;30.31;24.47;99985.66;5090206;28;19924;-54
2022/06/07 08:57:39;;;;;;;;;;;;;;;30.61;24.15;99989.13;5101654;28;20380;-56
2022/06/07 09:00:14;;;;;;;;;;;;;;;29.68;25.52;99992.19;5082089;28;19924;-56
2022/06/07 09:02:52;;;;;;;;;;;;;;;29.98;24.52;99990.81;5093771;28;19924;-54
2022/06/07 09:05:19;;;;;;;;;;;;;;;29.82;25.34;99997.50;5081934;28;19925;-56
2022/06/07 09:07:46;;;;;;;;;;;;;;;29.20;26.36;99991.19;5084699;28;19924;-53
2022/06/07 09:13:01;;;;;;;;;;;;;;;29.59;26.11;100006.41;5086089;28;19928;-55
2022/06/07 09:15:31;;;;;;;;;;;;;;;29.31;26.30;99991.66;5080820;28;19948;-56
2022/06/07 09:17:59;;;;;;;;;;;;;;;29.72;25.87;99987.97;5095369;28;19935;-57
2022/06/07 09:20:28;;;;;;;;;;;;;;;29.27;26.14;99996.69;5090107;28;20569;-54
2022/06/07 09:22:57;;;;;;;;;;;;;;;28.00;27.76;99995.56;5083870;28;19951;-57
2022/06/07 09:25:25;;;;;;;;;;;;;;;27.03;28.95;100005.44;5073617;28;20381;-56
2022/06/07 09:27:53;;;;;;;;;;;;;;;26.58;29.53;99991.59;5084875;28;19932;-53
2022/06/07 09:30:24;;;;;;;;;;;;;;;26.16;30.71;100003.28;5106481;28;19939;-56
2022/06/07 09:32:53;;;;;;;;;;;;;;;25.61;31.93;100007.38;5110414;28;19931;-54
2022/06/07 09:35:21;;;;;;;;;;;;;;;25.03;33.13;100004.41;5090944;28;19932;-53
2022/06/07 09:37:50;;;;;;;;;;;;;;;25.26;32.35;99998.06;5090324;28;19924;-53
2022/06/07 09:40:24;;;;;;;;;;;;;;;25.02;33.44;100000.75;5108752;28;19924;-57
2022/06/07 09:42:52;;;;;;;;;;;;;;;25.01;33.59;99993.47;5110917;28;20367;-56
2022/06/07 09:45:27;;;;;;;;;;;;;;;25.25;33.22;100002.16;5109147;28;19931;-56
2022/06/07 09:47:56;;;;;;;;;;;;;;;25.38;33.17;99997.50;5111365;28;20319;-55
2022/06/07 09:50:26;;;;;;;;;;;;;;;25.49;33.38;99995.31;5114114;28;20383;-55
2022/06/07 09:52:55;;;;;;;;;;;;;;;25.46;34.01;99993.31;5114821;28;19931;-57
2022/06/07 09:55:25;;;;;;;;;;;;;;;24.92;34.32;99998.84;5101969;28;19924;-55
2022/06/07 09:57:59;;;;;;;;;;;;;;;24.55;34.94;99991.94;5097869;28;19927;-55
2022/06/07 10:00:30;;;;;;;;;;;;;;;24.69;35.19;99990.97;5114438;28;20368;-56
2022/06/07 10:03:12;;;;;;;;;;;;;;;23.86;36.51;99991.66;5108335;28;19935;-56
2022/06/07 10:05:43;;;;;;;;;;;;;;;23.37;37.66;99992.75;5111707;28;19923;-57
2022/06/07 10:08:18;;;;;;;;;;;;;;;23.38;37.38;99992.34;5114369;28;20394;-57
2022/06/07 10:10:47;;;;;;;;;;;;;;;22.99;38.44;99996.13;5100063;28;20406;-56
2022/06/07 10:13:21;;;;;;;;;;;;;;;22.84;38.97;99994.53;5094255;28;19928;-55
2022/06/07 10:15:52;;;;;;;;;;;;;;;23.06;39.40;99990.44;5106527;28;19931;-56
2022/06/07 10:18:26;;;;;;;;;;;;;;;23.33;38.82;99986.25;5109573;28;20303;-56
2022/06/07 10:21:05;;;;;;;;;;;;;;;23.19;38.19;99981.47;5108670;28;20276;-53
2022/06/07 10:23:41;;;;;;;;;;;;;;;23.40;37.97;99981.38;5114382;28;20364;-52
2022/06/07 10:26:18;;;;;;;;;;;;;;;23.98;38.23;99975.31;5112099;28;19924;-54
2022/06/07 10:28:51;;;;;;;;;;;;;;;24.30;36.85;99975.84;5095441;28;19931;-57
2022/06/07 10:31:24;;;;;;;;;;;;;;;24.56;36.79;99975.66;5096905;28;19928;-55
2022/06/07 10:33:53;;;;;;;;;;;;;;;25.00;35.49;99971.09;5085869;28;19925;-53
2022/06/07 10:36:40;;;;;;;;;;;;;;;24.98;35.45;99965.81;5089736;28;20285;-53
2022/06/07 10:39:15;;;;;;;;;;;;;;;25.08;35.40;99955.50;5084611;28;19924;-55
2022/06/07 10:41:56;;;;;;;;;;;;;;;25.11;36.23;99966.88;5095188;28;19923;-59
2022/06/07 10:44:27;;;;;;;;;;;;;;;25.18;36.32;99968.00;5084269;28;19928;-55
2022/06/07 10:46:57;;;;;;;;;;;;;;;25.16;36.38;99959.88;5084902;28;19924;-54
2022/06/07 10:49:29;;;;;;;;;;;;;;;25.29;36.38;99960.94;5085774;28;19948;-53
2022/06/07 10:54:55;;;;;;;;;;;;;;;25.42;35.45;99957.53;5055260;28;19924;-56
2022/06/07 10:57:25;;;;;;;;;;;;;;;25.17;35.90;99955.00;5088340;28;19931;-55
2022/06/07 10:59:52;;;;;;;;;;;;;;;25.00;36.58;99954.00;5086696;28;19927;-55
2022/06/07 11:02:25;;;;;;;;;;;;;;;24.88;36.50;99961.88;5091312;28;19935;-56
2022/06/07 11:10:28;;;;;;;;;;;;;;;25.12;36.77;99951.38;5094950;28;19928;-53
2022/06/07 11:13:01;;;;;;;;;;;;;;;25.25;36.57;99953.69;5097053;28;19924;-53
2022/06/07 11:15:33;;;;;;;;;;;;;;;25.93;36.01;99952.69;5099547;28;19924;-56
2022/06/07 11:18:03;;;;;;;;;;;;;;;26.08;35.34;99941.84;5090133;28;19928;-56
2022/06/07 11:20:31;;;;;;;;;;;;;;;26.13;35.31;99941.38;5082190;28;19924;-56
2022/06/07 11:23:07;;;;;;;;;;;;;;;26.19;34.77;99948.19;5092566;28;19931;-53
2022/06/07 11:25:37;;;;;;;;;;;;;;;25.90;34.90;99945.81;5091277;28;20302;-53
2022/06/07 11:28:07;;;;;;;;;;;;;;;25.73;34.96;99949.72;5089737;28;19929;-54
2022/06/07 11:30:45;;;;;;;;;;;;;;;25.70;35.17;99950.59;5086630;28;19931;-56
2022/06/07 11:33:31;;;;;;;;;;;;;;;25.95;35.35;99938.81;5089491;28;19939;-55
2022/06/07 11:36:22;;;;;;;;;;;;;;;26.17;34.65;99927.84;5080882;28;19929;-53
2022/06/07 11:39:00;;;;;;;;;;;;;;;26.53;33.73;99927.97;5087904;28;19935;-52
2022/06/07 11:41:42;;;;;;;;;;;;;;;26.93;33.17;99927.22;5082151;28;19932;-54
2022/06/07 11:44:34;;;;;;;;;;;;;;;27.79;32.74;99916.69;5092855;28;19929;-54
2022/06/07 11:47:02;;;;;;;;;;;;;;;28.37;31.76;99918.09;5076009;28;19928;-53
2022/06/07 11:49:48;;;;;;;;;;;;;;;28.19;31.93;99913.66;5101137;28;19928;-55
2022/06/07 11:52:23;;;;;;;;;;;;;;;27.34;32.14;99923.09;5064842;28;20393;-53
2022/06/07 11:54:53;;;;;;;;;;;;;;;26.79;32.62;99916.06;5090090;28;19935;-56
2022/06/07 11:57:28;;;;;;;;;;;;;;;27.45;31.90;99917.94;5088108;28;19931;-56
2022/06/07 11:59:56;;;;;;;;;;;;;;;27.71;31.17;99918.13;5101057;28;19928;-56
2022/06/07 12:02:25;;;;;;;;;;;;;;;27.61;31.65;99916.31;5090554;28;19928;-53
2022/06/07 12:05:07;;;;;;;;;;;;;;;27.41;32.62;99922.94;5094588;28;20031;-56
2022/06/07 12:07:39;;;;;;;;;;;;;;;27.25;31.73;99915.09;5106281;28;19928;-53
2022/06/07 12:10:22;;;;;;;;;;;;;;;26.93;32.50;99924.34;5092230;28;19924;-56
2022/06/07 12:12:52;;;;;;;;;;;;;;;26.36;33.89;99925.47;5090992;28;19932;-54
2022/06/07 12:15:21;;;;;;;;;;;;;;;26.08;34.21;99919.00;5089251;28;19931;-56
2022/06/07 12:17:52;;;;;;;;;;;;;;;25.66;35.23;99927.00;5081573;28;19931;-55
2022/06/07 12:20:24;;;;;;;;;;;;;;;25.47;35.62;99920.78;5091903;28;19928;-56
2022/06/07 12:22:51;;;;;;;;;;;;;;;25.58;35.54;99914.13;5097715;28;19931;-53
2022/06/07 12:25:21;;;;;;;;;;;;;;;25.89;35.17;99906.28;5091954;28;19924;-54
2022/06/07 12:27:51;;;;;;;;;;;;;;;25.73;35.37;99909.78;5090435;28;19931;-55
2022/06/07 12:30:25;;;;;;;;;;;;;;;25.59;35.78;99916.53;5091610;28;19947;-54
2022/06/07 12:32:54;;;;;;;;;;;;;;;25.80;35.59;99909.66;5084719;28;19947;-53
2022/06/07 12:35:22;;;;;;;;;;;;;;;26.03;35.58;99905.25;5084774;28;19924;-55
2022/06/07 12:37:51;;;;;;;;;;;;;;;26.11;35.97;99918.16;5090191;28;19924;-56
2022/06/07 12:40:32;;;;;;;;;;;;;;;26.33;35.50;99901.44;5102655;28;19931;-52
2022/06/07 12:42:59;;;;;;;;;;;;;;;26.28;35.82;99901.94;5072625;28;19924;-53
2022/06/07 12:45:32;;;;;;;;;;;;;;;25.96;35.88;99905.38;5091725;28;19924;-54
2022/06/07 12:48:00;;;;;;;;;;;;;;;25.71;36.41;99912.28;5091808;28;19924;-55
2022/06/07 12:50:37;;;;;;;;;;;;;;;25.24;37.64;99920.72;5099518;28;20336;-53
2022/06/07 12:53:05;;;;;;;;;;;;;;;25.04;37.87;99909.94;5102370;28;19923;-56
2022/06/07 12:55:36;;;;;;;;;;;;;;;24.67;38.13;99911.66;5067586;28;19924;-53
2022/06/07 12:58:05;;;;;;;;;;;;;;;24.59;38.27;99915.81;5072074;28;20330;-56
2022/06/07 13:00:41;;;;;;;;;;;;;;;24.62;38.77;99914.16;5068904;28;19925;-55
2022/06/07 13:03:19;;;;;;;;;;;;;;;24.31;38.68;99920.53;5043065;28;19929;-55
2022/06/07 13:05:46;;;;;;;;;;;;;;;23.90;39.32;99923.38;5051259;28;19932;-55
2022/06/07 13:08:15;;;;;;;;;;;;;;;23.50;40.23;99929.31;5071523;28;19925;-54
2022/06/07 13:10:44;;;;;;;;;;;;;;;23.15;41.32;99932.38;5061351;28;20365;-54
2022/06/07 13:13:17;;;;;;;;;;;;;;;22.65;41.97;99947.56;5071491;28;19925;-56
2022/06/07 13:15:54;;;;;;;;;;;;;;;22.55;42.94;99945.53;5073076;28;19931;-56